AirNav   Everest Fuels
 
 559 users online  

24XA Cross-B Airport
San Antonio, Texas, USA

GOING TO SAN ANTONIO?


FAA INFORMATION EFFECTIVE 26 JANUARY 2023

Location

FAA Identifier: 24XA
Lat/Long: 29-19-15.4900N 098-22-13.0600W
29-19.258167N 098-22.217667W
29.3209694,-98.3702944
(estimated)
Elevation: 530 ft. / 162 m (estimated)
From city: 10 miles SE of SAN ANTONIO, TX
Time zone: UTC -6 (UTC -5 during Daylight Saving Time)
Zip code: 78223

Airport Operations

Airport use: Private use. Permission required prior to landing
Activation date: 12/2007
Control tower: no
ARTCC: HOUSTON CENTER
FSS: SAN ANGELO FLIGHT SERVICE STATION
Attendance: UNATNDD
Segmented circle: no

Airport Communications

WX ASOS at SSF (5 nm W): PHONE 210-927-9391
WX ASOS at SAT (14 nm N): PHONE 210-805-5583

Nearby radio navigation aids

VOR radial/distance  VOR name  Freq  Var
SSFr037/(5.4)STINSON VOR108.4009E
RNDr196/12.7RANDOLPH VORTAC112.3005E
SATr158/20.0SAN ANTONIO VORTAC116.8008E

 
NDB name  Hdg/Dist  Freq  Var  ID
DEVINE063/31.735907EHHH .... .... ....

Airport Services

Runway Information

Runway 12/30

Dimensions: 2000 x 100 ft. / 610 x 30 m
Surface: turf
RUNWAY 12  RUNWAY 30
Traffic pattern: leftleft

Airport Ownership and Management from official FAA records

Ownership: Privately-owned
Owner: MICHAEL & JOLEEN DIAS
9439 HILDEBRANDT RD
SAN ANTONIO, TX 78222
Phone 201-722-0388
Manager: FRED SEABERS
9439 HILDEBRANDT RD
SAN ANTONIO, TX 78222
Phone 201-722-0388

Additional Remarks

1000 FT RADIO TWR 1 NM NE; 100 FT PLINE 3/4 NM NW;AND 700 FT SMOKE STACK 3 NM SE.
FOR CD CTC SAN ANTONIO APCH AT 210-805-5516.

Instrument Procedures

There are no published instrument procedures at 24XA.

Some nearby airports with instrument procedures:

KSSF - Stinson Municipal Airport (5 nm W)
KSKF - Kelly Field Airport (12 nm W)
KRND - Randolph Air Force Base (13 nm N)
KSAT - San Antonio International Airport (14 nm N)
KPEZ - Pleasanton Municipal Airport (23 nm S)
 
Loc | Ops | Rwys | IFR | FBO | Links
Com | Nav | Svcs | Stats | Notes
Aerial photo
No photo
 
Sectional chart

 
Airport distance calculator
Flying to Cross-B Airport? Find the distance to fly.

From to 24XA

Sunrise and sunset
Times for 29-Jan-2023
 Local
(UTC-6)
 Zulu
(UTC)
Morning civil twilight07:0013:00
Sunrise07:2513:25
Sunset18:0800:08
Evening civil twilight18:3300:33

Current date and time
Zulu (UTC)  29-Jan-2023 08:10:21
Local (UTC-6)  29-Jan-2023 02:10:21
 
METAR
KSSF 
5nm W 
290753Z AUTO 13003KT 1/4SM FG VV002 16/16 A2996 RMK AO2 SLP142 T01560156
KSKF 
11nm W 
290755Z AUTO 00000KT 1/4SM R16/1200V1400FT FG VV001 15/15 A2996 RMK AO2 CIG 000 RWY34 SLP143 T01530148 $
KRND 
13nm NE 
290755Z AUTO 17007KT 5/8SM R15L/3500FT BR VV001 17/16 A2996 RMK AO2 SLP142 T01650163
KSAT 
14nm N 
290751Z 00000KT 1/16SM R13R/1000V1200FT -DZ FG VV001 15/15 A2999 RMK AO2 TWR VIS 1/8 SLP143 P0000 T01500150
TAF
KSSF 
5nm W 
290526Z 2906/3006 16004KT 1 1/2SM -DZ BR OVC003 FM290700 17004KT 1/2SM -DZ FG OVC003 FM291500 VRB05KT 4SM -SHRA OVC008 FM291800 04008KT P6SM -SHRA OVC015 FM300000 03012KT P6SM BKN025
KSKF 
11nm W 
290445Z 2904/3008 VRB06KT 3200 BR OVC005 QNH2997INS BECMG 2905/2906 16006KT 0800 -DZ FG OVC005 QNH2992INS TEMPO 2907/2911 VRB06KT 0300 DZ FG VV001 BECMG 2912/2913 VRB06KT 0500 -RADZ FG VV002 QNH2993INS BECMG 2915/2916 02006KT 2400 BR OVC007 QNH2996INS BECMG 2917/2918 34006KT 4800 BR BKN010 OVC018 QNH2992INS BECMG 2920/2921 04006KT 6000 BR BKN022 OVC040 QNH2992INS BECMG 3003/3004 04010G15KT 9999 NSW BKN020 OVC030 QNH3004INS TX23/2921Z TN14/2904Z LAST NO AMDS AFT 2906 NEXT 2910
KSAT 
14nm N 
290526Z 2906/3012 VRB03KT 2SM -DZ BR OVC003 FM290700 17004KT 1/2SM -DZ FG OVC003 FM291500 VRB05KT 4SM -SHRA OVC008 FM291800 04008KT P6SM -SHRA OVC015 FM300000 03012KT P6SM BKN025 FM300600 03010KT P6SM BKN015
NOTAMs
Click for the latest NOTAMs
NOTAMs are issued by the DoD/FAA and will open in a separate window not controlled by AirNav.

 

 
 

Would you like to see your business listed on this page?

 If your business provides an interesting product or service to pilots, flight crews, aircraft, or users of the Cross-B Airport, you should consider listing it here.  To start the listing process, click on the button below
 
Add a business
 

Other Pages about Cross-B Airport

Update a link
 
Copyright © AirNav, LLC. All rights reserved. Privacy Policy  Contact